createdAt,value
2023-02-22T00:01:51.107Z,8.43
2023-02-22T00:04:53.866Z,7.77
2023-02-22T00:08:00.273Z,9.57
2023-02-22T00:11:10.549Z,9.00
2023-02-22T00:14:12.659Z,9.50
2023-02-22T00:17:16.265Z,13.77
2023-02-22T00:20:19.237Z,9.07
2023-02-22T00:23:21.914Z,11.67
2023-02-22T00:26:23.624Z,12.17
2023-02-22T00:29:25.354Z,11.50
2023-02-22T00:32:27.033Z,13.97
2023-02-22T00:35:29.948Z,12.77
2023-02-22T00:38:32.309Z,12.07
2023-02-22T00:41:34.179Z,12.57
2023-02-22T00:44:37.708Z,13.83
2023-02-22T00:47:39.411Z,13.00
2023-02-22T00:50:41.778Z,13.43
2023-02-22T00:53:43.374Z,13.33
2023-02-22T00:56:44.944Z,13.00
2023-02-22T00:59:46.732Z,14.50
2023-02-22T01:02:51.288Z,14.27
2023-02-22T01:05:53.388Z,12.23
2023-02-22T01:08:55.003Z,16.00
2023-02-22T01:11:58.947Z,12.80
2023-02-22T01:15:00.650Z,15.77
2023-02-22T01:18:02.638Z,14.93
2023-02-22T01:21:04.431Z,13.23
2023-02-22T01:24:06.245Z,12.63
2023-02-22T01:27:08.043Z,13.80
2023-02-22T01:30:12.259Z,13.73
2023-02-22T01:33:15.579Z,13.70
2023-02-22T01:36:19.017Z,14.70
2023-02-22T01:39:21.259Z,14.10
2023-02-22T01:42:24.101Z,14.43
2023-02-22T01:45:34.664Z,19.40
2023-02-22T01:48:42.152Z,19.83
2023-02-22T01:51:48.891Z,17.27
2023-02-22T01:54:55.915Z,16.40
2023-02-22T01:57:58.527Z,12.67
2023-02-22T02:01:01.467Z,14.30
2023-02-22T02:04:06.054Z,16.10
2023-02-22T02:07:08.237Z,14.30
2023-02-22T02:10:14.408Z,15.03
2023-02-22T02:13:16.424Z,15.03
2023-02-22T02:16:18.140Z,15.57
2023-02-22T02:19:20.344Z,15.07
2023-02-22T02:22:42.745Z,15.03
2023-02-22T02:25:55.022Z,17.03
2023-02-22T02:28:56.824Z,14.73
2023-02-22T02:31:58.487Z,15.53
2023-02-22T02:35:15.350Z,16.63
2023-02-22T02:38:28.859Z,14.37
2023-02-22T02:41:33.755Z,14.10
2023-02-22T02:44:46.115Z,16.03
2023-02-22T02:47:53.502Z,12.80
2023-02-22T02:50:56.692Z,14.40
2023-02-22T02:53:59.074Z,15.00
2023-02-22T02:57:00.750Z,14.97
2023-02-22T03:00:02.452Z,15.97
2023-02-22T03:03:22.936Z,16.13
2023-02-22T03:06:50.770Z,19.10
2023-02-22T03:10:13.269Z,11.37
2023-02-22T03:13:33.935Z,14.63
2023-02-22T03:16:42.134Z,14.40
2023-02-22T03:20:04.983Z,19.77
2023-02-22T03:23:06.618Z,14.47
2023-02-22T03:26:12.156Z,14.53
2023-02-22T03:29:17.947Z,15.43
2023-02-22T03:32:26.039Z,14.50
2023-02-22T03:35:35.128Z,17.73
2023-02-22T03:38:37.693Z,11.83
2023-02-22T03:41:40.444Z,28.90
2023-02-22T03:44:42.848Z,15.03
2023-02-22T03:47:50.319Z,12.00
2023-02-22T03:50:52.481Z,13.87
2023-02-22T03:53:56.945Z,13.17
2023-02-22T03:57:12.276Z,14.07
2023-02-22T04:00:20.052Z,13.47
2023-02-22T04:03:22.479Z,14.10
2023-02-22T04:06:25.026Z,16.23
2023-02-22T04:09:27.393Z,19.33
2023-02-22T04:12:30.404Z,14.30
2023-02-22T04:15:37.234Z,11.53
2023-02-22T04:18:40.934Z,15.83
2023-02-22T04:21:42.763Z,13.73
2023-02-22T04:24:51.781Z,17.83
2023-02-22T04:27:53.538Z,15.63
2023-02-22T04:31:03.861Z,19.37
2023-02-22T04:34:06.458Z,19.43
2023-02-22T04:37:12.381Z,25.20
2023-02-22T04:40:14.094Z,20.30
2023-02-22T04:43:16.092Z,17.93
2023-02-22T04:46:17.953Z,21.43
2023-02-22T04:49:19.894Z,23.17
2023-02-22T04:52:22.708Z,22.20
2023-02-22T04:55:24.714Z,19.93
2023-02-22T04:58:26.398Z,18.73
2023-02-22T05:01:33.656Z,24.57
2023-02-22T05:04:38.088Z,21.43
2023-02-22T05:07:39.739Z,15.67
2023-02-22T05:10:41.299Z,19.40
2023-02-22T05:13:43.822Z,19.30
2023-02-22T05:16:45.490Z,20.27
2023-02-22T05:19:48.426Z,22.47
2023-02-22T05:22:52.078Z,17.30
2023-02-22T05:25:56.221Z,22.00
2023-02-22T05:28:57.860Z,16.63
2023-02-22T05:31:59.667Z,20.30
2023-02-22T05:35:01.377Z,25.67
2023-02-22T05:38:03.778Z,20.50
2023-02-22T05:41:05.475Z,20.03
2023-02-22T05:44:07.083Z,22.53
2023-02-22T05:47:08.643Z,27.27
2023-02-22T05:50:10.578Z,27.83
2023-02-22T05:53:12.269Z,28.50
2023-02-22T05:56:13.946Z,35.93
2023-02-22T05:59:15.549Z,40.57
2023-02-22T06:02:17.185Z,28.43
2023-02-22T06:05:18.904Z,38.27
2023-02-22T06:08:20.526Z,39.53
2023-02-22T06:11:22.238Z,36.13
2023-02-22T06:14:24.489Z,33.13
2023-02-22T06:17:26.118Z,40.13
2023-02-22T06:20:28.664Z,46.97
2023-02-22T06:23:30.303Z,43.93
2023-02-22T06:26:31.887Z,37.67
2023-02-22T06:29:33.603Z,36.67
2023-02-22T06:32:35.190Z,34.80
2023-02-22T06:35:36.799Z,38.67
2023-02-22T06:38:38.448Z,37.70
2023-02-22T06:41:40.429Z,43.00
2023-02-22T06:44:42.133Z,42.50
2023-02-22T06:47:43.886Z,44.00
2023-02-22T06:50:45.532Z,49.40
2023-02-22T06:53:47.200Z,56.27
2023-02-22T06:56:49.595Z,36.73
2023-02-22T06:59:51.242Z,35.37
2023-02-22T07:02:54.917Z,31.93
2023-02-22T07:05:56.547Z,15.60
2023-02-22T07:08:58.108Z,13.90
2023-02-22T07:11:59.786Z,18.30
2023-02-22T07:15:01.545Z,9.00
2023-02-22T07:18:03.255Z,5.20
2023-02-22T07:21:05.741Z,8.33
2023-02-22T07:24:07.439Z,9.47
2023-02-22T07:27:09.124Z,5.53
2023-02-22T07:30:25.092Z,4.80
2023-02-22T07:33:26.914Z,17.63
2023-02-22T07:36:28.560Z,9.33
2023-02-22T07:39:30.242Z,6.57
2023-02-22T07:42:33.147Z,11.13
2023-02-22T07:45:35.690Z,13.87
2023-02-22T07:48:37.356Z,8.40
2023-02-22T07:51:38.990Z,7.90
2023-02-22T07:54:40.644Z,10.57
2023-02-22T07:57:42.872Z,8.47
2023-02-22T08:00:44.532Z,6.33
2023-02-22T08:03:47.619Z,9.33
2023-02-22T08:06:50.276Z,9.30
2023-02-22T08:09:51.918Z,7.30
2023-02-22T08:12:54.095Z,4.87
2023-02-22T08:15:56.181Z,6.40
2023-02-22T08:18:57.867Z,8.17
2023-02-22T08:21:59.530Z,9.67
2023-02-22T08:25:01.168Z,6.97
2023-02-22T08:28:05.053Z,9.67
2023-02-22T08:31:08.856Z,9.93
2023-02-22T08:34:10.523Z,7.00
2023-02-22T08:37:12.165Z,11.03
2023-02-22T08:40:15.032Z,3.97
2023-02-22T08:43:17.686Z,11.77
2023-02-22T08:46:19.268Z,7.77
2023-02-22T08:49:21.310Z,8.20
2023-02-22T08:52:22.958Z,11.90
2023-02-22T08:55:25.409Z,15.80
2023-02-22T08:58:27.061Z,9.40
2023-02-22T09:01:33.325Z,10.77
2023-02-22T09:04:35.317Z,9.50
2023-02-22T09:07:36.910Z,8.83
2023-02-22T09:10:38.563Z,10.67
2023-02-22T09:13:40.322Z,7.10
2023-02-22T09:16:42.920Z,8.07
2023-02-22T09:19:45.476Z,6.43
2023-02-22T09:22:47.683Z,5.60
2023-02-22T09:25:49.765Z,6.83
2023-02-22T09:28:51.466Z,8.33
2023-02-22T09:31:54.860Z,7.60
2023-02-22T09:34:56.607Z,4.17
2023-02-22T09:37:59.338Z,5.70
2023-02-22T09:41:21.306Z,14.30
2023-02-22T09:44:29.140Z,10.23
2023-02-22T09:47:39.751Z,12.20
2023-02-22T09:50:42.734Z,7.10
2023-02-22T09:53:45.910Z,7.20
2023-02-22T09:56:48.668Z,5.90
2023-02-22T10:00:13.305Z,7.63
2023-02-22T10:03:32.867Z,5.63
2023-02-22T10:06:35.424Z,11.00
2023-02-22T10:09:38.724Z,7.70
2023-02-22T10:12:46.350Z,8.83
2023-02-22T10:15:48.060Z,12.50
2023-02-22T10:18:55.201Z,7.23
2023-02-22T10:22:15.419Z,4.57
2023-02-22T10:25:22.048Z,9.13
2023-02-22T10:28:43.980Z,6.93
2023-02-22T10:31:47.091Z,49.87
2023-02-22T10:34:51.548Z,5.47
2023-02-22T10:38:06.978Z,5.57
2023-02-22T10:41:08.817Z,8.43
2023-02-22T10:44:10.543Z,8.57
2023-02-22T10:47:17.591Z,9.83
2023-02-22T10:50:20.915Z,8.87
2023-02-22T10:53:23.216Z,16.63
2023-02-22T10:56:26.478Z,9.53
2023-02-22T10:59:30.734Z,7.83
2023-02-22T11:02:33.393Z,6.10
2023-02-22T11:05:39.170Z,6.53
2023-02-22T11:08:41.624Z,5.67
2023-02-22T11:11:46.035Z,9.97
2023-02-22T11:14:48.319Z,6.23
2023-02-22T11:17:55.321Z,6.73
2023-02-22T11:21:01.974Z,6.60
2023-02-22T11:24:04.986Z,5.23
2023-02-22T11:27:06.665Z,5.13
2023-02-22T11:30:08.309Z,6.00
2023-02-22T11:33:15.940Z,6.73
2023-02-22T11:36:30.625Z,4.63
2023-02-22T11:39:35.626Z,5.53
2023-02-22T11:42:37.298Z,4.40
2023-02-22T11:45:44.143Z,7.13
2023-02-22T11:49:02.179Z,7.17
2023-02-22T11:52:19.034Z,7.80
2023-02-22T11:55:36.389Z,8.10
2023-02-22T11:58:59.992Z,8.67
2023-02-22T12:02:20.522Z,4.70
2023-02-22T12:05:40.851Z,8.93
2023-02-22T12:08:56.957Z,5.50
2023-02-22T12:12:01.609Z,6.87
2023-02-22T12:15:08.668Z,3.53
2023-02-22T12:18:16.081Z,5.43
2023-02-22T12:21:19.786Z,4.70
2023-02-22T12:24:27.788Z,3.73
2023-02-22T12:27:49.696Z,4.60
2023-02-22T12:31:15.162Z,5.67
2023-02-22T12:34:21.821Z,6.10
2023-02-22T12:37:28.164Z,10.40
2023-02-22T12:40:53.948Z,6.13
2023-02-22T12:43:55.646Z,6.53
2023-02-22T12:46:59.607Z,10.37
2023-02-22T12:50:15.594Z,6.60
2023-02-22T12:53:20.355Z,4.40
2023-02-22T12:56:28.199Z,5.57
2023-02-22T12:59:32.884Z,4.57
2023-02-22T13:02:40.222Z,9.07
2023-02-22T13:05:42.285Z,6.60
2023-02-22T13:08:47.239Z,6.83
2023-02-22T13:11:51.695Z,9.27
2023-02-22T13:14:59.512Z,8.50
2023-02-22T13:18:24.922Z,6.10
2023-02-22T13:21:45.040Z,8.60
2023-02-22T13:24:52.577Z,7.63
2023-02-22T13:27:59.434Z,6.37
2023-02-22T13:31:07.436Z,4.20
2023-02-22T13:34:35.491Z,4.87
2023-02-22T13:37:40.248Z,4.63
2023-02-22T13:40:53.994Z,6.50
2023-02-22T13:44:10.771Z,2.53
2023-02-22T13:47:30.983Z,5.10
2023-02-22T13:50:38.814Z,6.07
2023-02-22T13:53:49.548Z,9.33
2023-02-22T13:56:52.492Z,5.53
2023-02-22T14:00:12.899Z,5.83
2023-02-22T14:03:14.533Z,4.23
2023-02-22T14:06:36.629Z,3.03
2023-02-22T14:09:57.669Z,6.53
2023-02-22T14:13:08.632Z,4.17
2023-02-22T14:16:10.250Z,4.90
2023-02-22T14:19:14.799Z,6.37
2023-02-22T14:22:25.609Z,8.33
2023-02-22T14:25:30.410Z,4.70
2023-02-22T14:28:43.103Z,8.90
2023-02-22T14:31:44.805Z,10.23
2023-02-22T14:35:00.833Z,3.20
2023-02-22T14:38:02.936Z,7.43
2023-02-22T14:41:05.054Z,15.73
2023-02-22T14:44:07.413Z,6.67
2023-02-22T14:47:14.834Z,7.20
2023-02-22T14:50:23.249Z,6.40
2023-02-22T14:53:40.552Z,11.37
2023-02-22T14:56:55.711Z,8.57
2023-02-22T14:59:57.346Z,6.00
2023-02-22T15:02:59.973Z,7.07
2023-02-22T15:06:15.018Z,15.60
2023-02-22T15:09:29.677Z,6.67
2023-02-22T15:12:33.646Z,8.67
2023-02-22T15:15:47.585Z,7.87
2023-02-22T15:18:53.571Z,10.93
2023-02-22T15:21:56.284Z,7.80
2023-02-22T15:25:02.004Z,10.83
2023-02-22T15:28:04.385Z,16.07
2023-02-22T15:31:16.797Z,8.40
2023-02-22T15:34:24.380Z,12.80
2023-02-22T15:37:28.058Z,23.17
2023-02-22T15:40:33.318Z,12.83
2023-02-22T15:43:35.032Z,9.13
2023-02-22T15:46:37.532Z,11.67
2023-02-22T15:49:39.244Z,5.97
2023-02-22T15:52:46.628Z,18.83
2023-02-22T15:55:49.572Z,36.23
2023-02-22T15:58:51.872Z,37.27
2023-02-22T16:01:53.998Z,34.07
2023-02-22T16:05:15.857Z,33.87
2023-02-22T16:08:52.658Z,45.70
2023-02-22T16:12:09.519Z,30.23
2023-02-22T16:15:15.295Z,35.97
2023-02-22T16:18:31.311Z,40.87
2023-02-22T16:21:49.688Z,31.53
2023-02-22T16:24:52.588Z,39.87
2023-02-22T16:27:57.517Z,40.43
2023-02-22T16:30:59.287Z,34.97
2023-02-22T16:34:02.394Z,31.00
2023-02-22T16:37:04.042Z,54.00
2023-02-22T16:40:13.920Z,81.70
2023-02-22T16:43:17.403Z,95.27
2023-02-22T16:46:19.979Z,107.83
2023-02-22T16:49:23.468Z,68.03
2023-02-22T16:52:25.170Z,62.57
2023-02-22T16:55:26.929Z,54.33
2023-02-22T16:58:29.330Z,67.73
2023-02-22T17:01:35.303Z,66.23
2023-02-22T17:04:37.167Z,72.97
2023-02-22T17:07:40.571Z,73.10
2023-02-22T17:10:42.507Z,76.50
2023-02-22T17:13:45.830Z,73.83
2023-02-22T17:16:47.417Z,69.33
2023-02-22T17:19:49.063Z,75.50
2023-02-22T17:22:51.285Z,66.27
2023-02-22T17:26:03.388Z,60.17
2023-02-22T17:29:05.020Z,62.17
2023-02-22T17:32:07.384Z,51.40
2023-02-22T17:35:09.096Z,56.17
2023-02-22T17:38:10.779Z,61.87
2023-02-22T17:41:12.455Z,51.57
2023-02-22T17:44:14.191Z,66.97
2023-02-22T17:47:16.221Z,66.90
2023-02-22T17:50:18.929Z,64.77
2023-02-22T17:53:25.009Z,44.07
2023-02-22T17:56:26.814Z,35.60
2023-02-22T17:59:28.502Z,35.10
2023-02-22T18:02:30.188Z,35.90
2023-02-22T18:05:33.176Z,33.00
2023-02-22T18:08:34.859Z,33.87
2023-02-22T18:11:37.139Z,29.83
2023-02-22T18:14:38.866Z,37.47
2023-02-22T18:17:40.472Z,26.60
2023-02-22T18:20:43.947Z,30.17
2023-02-22T18:23:45.563Z,22.53
2023-02-22T18:26:54.049Z,25.97
2023-02-22T18:29:56.033Z,26.20
2023-02-22T18:32:57.753Z,30.73
2023-02-22T18:35:59.684Z,21.17
2023-02-22T18:39:01.264Z,21.07
2023-02-22T18:42:02.912Z,24.33
2023-02-22T18:45:05.622Z,43.00
2023-02-22T18:48:07.245Z,21.23
2023-02-22T18:51:10.319Z,33.33
2023-02-22T18:54:12.561Z,43.17
2023-02-22T18:57:14.109Z,32.07
2023-02-22T19:00:17.252Z,42.80
2023-02-22T19:03:18.917Z,42.10
2023-02-22T19:06:22.676Z,19.03
2023-02-22T19:09:24.959Z,16.50
2023-02-22T19:12:27.079Z,16.17
2023-02-22T19:15:28.647Z,32.10
2023-02-22T19:18:30.793Z,25.27
2023-02-22T19:21:32.883Z,30.10
2023-02-22T19:24:39.746Z,26.17
2023-02-22T19:27:44.385Z,27.23
2023-02-22T19:30:46.210Z,38.43
2023-02-22T19:33:50.940Z,33.07
2023-02-22T19:36:52.653Z,30.37
2023-02-22T19:39:54.282Z,29.70
2023-02-22T19:42:56.704Z,34.30
2023-02-22T19:45:58.424Z,28.77
2023-02-22T19:49:01.267Z,25.13
2023-02-22T19:52:03.963Z,23.33
2023-02-22T19:55:14.828Z,20.93
2023-02-22T19:58:16.447Z,24.70
2023-02-22T20:01:24.017Z,24.67
2023-02-22T20:04:25.803Z,17.67
2023-02-22T20:07:27.482Z,22.27
2023-02-22T20:10:29.192Z,16.70
2023-02-22T20:13:31.108Z,21.27
2023-02-22T20:16:33.564Z,19.47
2023-02-22T20:19:37.323Z,20.47
2023-02-22T20:22:40.620Z,20.30
2023-02-22T20:25:42.537Z,20.07
2023-02-22T20:28:44.674Z,18.20
2023-02-22T20:31:52.490Z,12.17
2023-02-22T20:34:54.171Z,11.83
2023-02-22T20:37:55.787Z,15.50
2023-02-22T20:40:57.359Z,16.97
2023-02-22T20:43:59.888Z,16.47
2023-02-22T20:47:03.468Z,20.50
2023-02-22T20:50:05.654Z,15.83
2023-02-22T20:53:07.259Z,17.20
2023-02-22T20:56:15.939Z,17.17
2023-02-22T20:59:18.800Z,15.20
2023-02-22T21:02:20.444Z,21.53
2023-02-22T21:05:22.298Z,23.97
2023-02-22T21:08:23.947Z,19.00
2023-02-22T21:11:27.171Z,16.63
2023-02-22T21:14:30.879Z,17.73
2023-02-22T21:17:32.562Z,19.47
2023-02-22T21:20:35.436Z,15.73
2023-02-22T21:23:37.477Z,18.57
2023-02-22T21:26:39.635Z,18.07
2023-02-22T21:29:41.261Z,16.17
2023-02-22T21:32:42.881Z,22.37
2023-02-22T21:35:47.205Z,20.27
2023-02-22T21:38:53.331Z,24.07
2023-02-22T21:42:00.241Z,16.90
2023-02-22T21:45:02.091Z,18.33
2023-02-22T21:48:03.968Z,12.33
2023-02-22T21:51:13.901Z,14.50
2023-02-22T21:54:16.955Z,14.60
2023-02-22T21:57:18.837Z,13.07
2023-02-22T22:00:29.126Z,15.33
2023-02-22T22:03:30.768Z,16.20
2023-02-22T22:06:34.410Z,12.73
2023-02-22T22:09:41.152Z,10.70
2023-02-22T22:12:46.191Z,11.80
2023-02-22T22:15:47.893Z,22.87
2023-02-22T22:18:49.540Z,17.47
2023-02-22T22:21:53.972Z,16.23
2023-02-22T22:24:55.732Z,16.73
2023-02-22T22:27:57.357Z,13.13
2023-02-22T22:30:59.028Z,10.63
2023-02-22T22:34:00.714Z,10.00
2023-02-22T22:37:03.038Z,10.47
2023-02-22T22:40:05.678Z,9.83
2023-02-22T22:43:07.212Z,12.80
2023-02-22T22:46:09.035Z,9.70
2023-02-22T22:49:12.572Z,8.87
2023-02-22T22:52:15.190Z,7.43
2023-02-22T22:55:16.913Z,7.53
2023-02-22T22:58:18.570Z,10.40
2023-02-22T23:01:26.835Z,12.23
2023-02-22T23:04:29.055Z,12.47
2023-02-22T23:07:30.648Z,11.13
2023-02-22T23:10:33.059Z,11.63
2023-02-22T23:13:34.962Z,12.70
2023-02-22T23:16:36.522Z,10.57
2023-02-22T23:19:38.160Z,10.47
2023-02-22T23:22:47.261Z,11.37
2023-02-22T23:25:50.810Z,11.40
2023-02-22T23:28:53.691Z,14.53
2023-02-22T23:31:55.586Z,13.77
2023-02-22T23:34:57.319Z,14.97
2023-02-22T23:37:58.957Z,15.23
2023-02-22T23:41:01.408Z,10.43
2023-02-22T23:44:03.679Z,16.13
2023-02-22T23:47:05.286Z,15.87
2023-02-22T23:50:13.582Z,14.50
2023-02-22T23:53:15.323Z,15.73
2023-02-22T23:56:21.034Z,13.63
2023-02-22T23:59:23.725Z,14.07
